Lakeland, Florida
Current Conditions -  °F | °C
As of 2:35 AM on Sunday 23 Nov 2014 (Local Time) from KLAL Reporting Station
Overcast Overcast  
Wind Chill: 21°   Ceiling: 1100
Heat Index: 21°   Visibility: 7mi
Dew Point: 20°   Wind: 9mph
Humidity: 94%   Direction: 120°ESE
Pressure: 30.04"   Gusts: NA
Location:  28.04°N, 81.95°W
Report Text: KLAL 230735Z AUTO 12008KT 7SM OVC011 21/20 A3004 RMK AO2
Loading
Personal Weather Stations






























Interactive Weather Map New forecast layout! Learn more

10-Day Weather Forecast

Advertisements
Track Severe Weather on mobile